Delson, Canada
Current Conditions -  °F | °C
As of 7:00 AM on Wednesday 28 Jan 2015 (Local Time) from CYUL Reporting Station
Broken Clouds Broken Clouds  
Wind Chill: -3°   Ceiling: 22000
Heat Index:   Visibility: 15mi
Dew Point: -6°   Wind: 6mph
Humidity: 56%   Direction: 280°W
Pressure: 30.12"   Gusts: NA
Location:  45.37°N, 73.55°W
Report Text: CYUL 281200Z 28005KT 15SM FEW120 BKN220 M14/M21 A3012 RMK AC2CS5 SLP201
Loading
Personal Weather Stations






























Interactive Weather Map New forecast layout! Learn more

10-Day Weather Forecast

Advertisements
Track Severe Weather on mobile